sensor_id;sensor_type;location;lat;lon;timestamp;temperature;humidity
12568;DHT22;6349;50.904;6.136;2024-02-23T00:00:56;6.60;99.90
12568;DHT22;6349;50.904;6.136;2024-02-23T00:02:56;6.60;99.90
12568;DHT22;6349;50.904;6.136;2024-02-23T00:04:58;6.60;99.90
12568;DHT22;6349;50.904;6.136;2024-02-23T00:06:59;6.60;99.90
12568;DHT22;6349;50.904;6.136;2024-02-23T00:08:59;6.60;99.90
12568;DHT22;6349;50.904;6.136;2024-02-23T00:11:00;6.60;99.90
12568;DHT22;6349;50.904;6.136;2024-02-23T00:13:00;6.60;99.90
12568;DHT22;6349;50.904;6.136;2024-02-23T00:15:01;6.60;99.90
12568;DHT22;6349;50.904;6.136;2024-02-23T00:17:02;6.50;99.90
12568;DHT22;6349;50.904;6.136;2024-02-23T00:19:03;6.50;99.90
12568;DHT22;6349;50.904;6.136;2024-02-23T00:21:04;6.50;99.90
12568;DHT22;6349;50.904;6.136;2024-02-23T00:23:04;6.50;99.90
12568;DHT22;6349;50.904;6.136;2024-02-23T00:25:05;6.50;99.90
12568;DHT22;6349;50.904;6.136;2024-02-23T00:27:06;6.40;99.90
12568;DHT22;6349;50.904;6.136;2024-02-23T00:29:06;6.40;99.90
12568;DHT22;6349;50.904;6.136;2024-02-23T00:31:07;6.30;99.90
12568;DHT22;6349;50.904;6.136;2024-02-23T00:33:07;6.30;99.90
12568;DHT22;6349;50.904;6.136;2024-02-23T00:35:09;6.30;99.90
12568;DHT22;6349;50.904;6.136;2024-02-23T00:37:09;6.30;99.90
12568;DHT22;6349;50.904;6.136;2024-02-23T00:39:10;6.30;99.90
12568;DHT22;6349;50.904;6.136;2024-02-23T00:41:11;6.30;99.90
12568;DHT22;6349;50.904;6.136;2024-02-23T00:43:11;6.20;99.90
12568;DHT22;6349;50.904;6.136;2024-02-23T00:45:12;6.30;99.90
12568;DHT22;6349;50.904;6.136;2024-02-23T00:47:12;6.20;99.90
12568;DHT22;6349;50.904;6.136;2024-02-23T00:49:13;6.20;99.90
12568;DHT22;6349;50.904;6.136;2024-02-23T00:51:13;6.20;99.90
12568;DHT22;6349;50.904;6.136;2024-02-23T00:53:14;6.20;99.90
12568;DHT22;6349;50.904;6.136;2024-02-23T00:55:15;6.20;99.90
12568;DHT22;6349;50.904;6.136;2024-02-23T00:57:15;6.20;99.90
12568;DHT22;6349;50.904;6.136;2024-02-23T00:59:16;6.20;99.90
12568;DHT22;6349;50.904;6.136;2024-02-23T01:01:17;6.20;99.90
12568;DHT22;6349;50.904;6.136;2024-02-23T01:03:17;6.10;99.90
12568;DHT22;6349;50.904;6.136;2024-02-23T01:05:18;6.10;99.90
12568;DHT22;6349;50.904;6.136;2024-02-23T01:07:19;6.00;99.90
12568;DHT22;6349;50.904;6.136;2024-02-23T01:09:19;6.00;99.90
12568;DHT22;6349;50.904;6.136;2024-02-23T01:11:20;6.00;99.90
12568;DHT22;6349;50.904;6.136;2024-02-23T01:13:21;6.00;99.90
12568;DHT22;6349;50.904;6.136;2024-02-23T01:15:22;6.00;99.90
12568;DHT22;6349;50.904;6.136;2024-02-23T01:17:22;6.00;99.90
12568;DHT22;6349;50.904;6.136;2024-02-23T01:19:23;6.00;99.90
12568;DHT22;6349;50.904;6.136;2024-02-23T01:21:24;6.00;99.90
12568;DHT22;6349;50.904;6.136;2024-02-23T01:23:24;6.00;99.90
12568;DHT22;6349;50.904;6.136;2024-02-23T01:25:25;5.90;99.90
12568;DHT22;6349;50.904;6.136;2024-02-23T01:27:25;5.90;99.90
12568;DHT22;6349;50.904;6.136;2024-02-23T01:29:26;5.90;99.90
12568;DHT22;6349;50.904;6.136;2024-02-23T01:31:27;5.90;99.90
12568;DHT22;6349;50.904;6.136;2024-02-23T01:33:27;5.90;99.90
12568;DHT22;6349;50.904;6.136;2024-02-23T01:35:28;5.90;99.90
12568;DHT22;6349;50.904;6.136;2024-02-23T01:37:30;5.90;99.90
12568;DHT22;6349;50.904;6.136;2024-02-23T01:39:31;6.00;99.90
12568;DHT22;6349;50.904;6.136;2024-02-23T01:41:31;6.00;99.90
12568;DHT22;6349;50.904;6.136;2024-02-23T01:43:32;6.00;99.90
12568;DHT22;6349;50.904;6.136;2024-02-23T01:45:33;6.00;99.90
12568;DHT22;6349;50.904;6.136;2024-02-23T01:47:33;6.00;99.90
12568;DHT22;6349;50.904;6.136;2024-02-23T01:49:34;6.00;99.90
12568;DHT22;6349;50.904;6.136;2024-02-23T01:51:36;6.00;99.90
12568;DHT22;6349;50.904;6.136;2024-02-23T01:53:36;5.90;99.90
12568;DHT22;6349;50.904;6.136;2024-02-23T01:55:39;5.90;99.90
12568;DHT22;6349;50.904;6.136;2024-02-23T01:57:41;5.80;99.90
12568;DHT22;6349;50.904;6.136;2024-02-23T01:59:41;5.90;99.90
12568;DHT22;6349;50.904;6.136;2024-02-23T02:01:43;5.90;99.90
12568;DHT22;6349;50.904;6.136;2024-02-23T02:03:44;5.80;99.90
12568;DHT22;6349;50.904;6.136;2024-02-23T02:05:45;5.90;99.90
12568;DHT22;6349;50.904;6.136;2024-02-23T02:07:47;5.80;99.90
12568;DHT22;6349;50.904;6.136;2024-02-23T02:09:50;5.80;99.90
12568;DHT22;6349;50.904;6.136;2024-02-23T02:11:51;5.80;99.90
12568;DHT22;6349;50.904;6.136;2024-02-23T02:13:52;5.70;99.90
12568;DHT22;6349;50.904;6.136;2024-02-23T02:15:52;5.70;99.90
12568;DHT22;6349;50.904;6.136;2024-02-23T02:17:53;5.70;99.90
12568;DHT22;6349;50.904;6.136;2024-02-23T02:19:54;5.70;99.90
12568;DHT22;6349;50.904;6.136;2024-02-23T02:21:55;5.70;99.90
12568;DHT22;6349;50.904;6.136;2024-02-23T02:23:56;5.70;99.90
12568;DHT22;6349;50.904;6.136;2024-02-23T02:25:58;5.70;99.90
12568;DHT22;6349;50.904;6.136;2024-02-23T02:27:58;5.70;99.90
12568;DHT22;6349;50.904;6.136;2024-02-23T02:29:59;5.70;99.90
12568;DHT22;6349;50.904;6.136;2024-02-23T02:31:59;5.70;99.90
12568;DHT22;6349;50.904;6.136;2024-02-23T02:34:00;5.70;99.90
12568;DHT22;6349;50.904;6.136;2024-02-23T02:36:01;5.70;99.90
12568;DHT22;6349;50.904;6.136;2024-02-23T02:38:01;5.60;99.90
12568;DHT22;6349;50.904;6.136;2024-02-23T02:40:02;5.60;99.90
12568;DHT22;6349;50.904;6.136;2024-02-23T02:42:04;5.60;99.90
12568;DHT22;6349;50.904;6.136;2024-02-23T02:44:04;5.70;99.90
12568;DHT22;6349;50.904;6.136;2024-02-23T02:46:05;5.60;99.90
12568;DHT22;6349;50.904;6.136;2024-02-23T02:48:06;5.60;99.90
12568;DHT22;6349;50.904;6.136;2024-02-23T02:50:07;5.60;99.90
12568;DHT22;6349;50.904;6.136;2024-02-23T02:52:07;5.60;99.90
12568;DHT22;6349;50.904;6.136;2024-02-23T02:54:08;5.60;99.90
12568;DHT22;6349;50.904;6.136;2024-02-23T02:56:09;5.60;99.90
12568;DHT22;6349;50.904;6.136;2024-02-23T02:58:13;5.60;99.90
12568;DHT22;6349;50.904;6.136;2024-02-23T03:00:14;5.60;99.90
12568;DHT22;6349;50.904;6.136;2024-02-23T03:02:14;5.60;99.90
12568;DHT22;6349;50.904;6.136;2024-02-23T03:04:15;5.50;99.90
12568;DHT22;6349;50.904;6.136;2024-02-23T03:06:15;5.50;99.90
12568;DHT22;6349;50.904;6.136;2024-02-23T03:08:16;5.60;99.90
12568;DHT22;6349;50.904;6.136;2024-02-23T03:10:16;5.60;99.90
12568;DHT22;6349;50.904;6.136;2024-02-23T03:12:17;5.60;99.90
12568;DHT22;6349;50.904;6.136;2024-02-23T03:14:18;5.60;99.90
12568;DHT22;6349;50.904;6.136;2024-02-23T03:16:21;5.60;99.90
12568;DHT22;6349;50.904;6.136;2024-02-23T03:18:23;5.60;99.90
12568;DHT22;6349;50.904;6.136;2024-02-23T03:20:24;5.60;99.90
12568;DHT22;6349;50.904;6.136;2024-02-23T03:22:24;5.60;99.90
12568;DHT22;6349;50.904;6.136;2024-02-23T03:24:25;5.70;99.90
12568;DHT22;6349;50.904;6.136;2024-02-23T03:26:25;5.70;99.90
12568;DHT22;6349;50.904;6.136;2024-02-23T03:28:26;5.70;99.90
12568;DHT22;6349;50.904;6.136;2024-02-23T03:30:27;5.80;99.90
12568;DHT22;6349;50.904;6.136;2024-02-23T03:32:28;5.80;99.90
12568;DHT22;6349;50.904;6.136;2024-02-23T03:34:28;5.70;99.90
12568;DHT22;6349;50.904;6.136;2024-02-23T03:36:29;5.70;99.90
12568;DHT22;6349;50.904;6.136;2024-02-23T03:38:29;5.70;99.90
12568;DHT22;6349;50.904;6.136;2024-02-23T03:40:30;5.70;99.90
12568;DHT22;6349;50.904;6.136;2024-02-23T03:42:31;5.70;99.90
12568;DHT22;6349;50.904;6.136;2024-02-23T03:44:31;5.80;99.90
12568;DHT22;6349;50.904;6.136;2024-02-23T03:46:32;5.70;99.90
12568;DHT22;6349;50.904;6.136;2024-02-23T03:48:32;5.70;99.90
12568;DHT22;6349;50.904;6.136;2024-02-23T03:50:33;5.70;99.90
12568;DHT22;6349;50.904;6.136;2024-02-23T03:52:33;5.70;99.90
12568;DHT22;6349;50.904;6.136;2024-02-23T03:54:34;5.60;99.90
12568;DHT22;6349;50.904;6.136;2024-02-23T03:56:39;5.60;99.90
12568;DHT22;6349;50.904;6.136;2024-02-23T03:58:40;5.60;99.90
12568;DHT22;6349;50.904;6.136;2024-02-23T04:00:43;5.60;99.90
12568;DHT22;6349;50.904;6.136;2024-02-23T04:02:44;5.70;99.90
12568;DHT22;6349;50.904;6.136;2024-02-23T04:04:44;5.70;99.90
12568;DHT22;6349;50.904;6.136;2024-02-23T04:06:45;5.70;99.90
12568;DHT22;6349;50.904;6.136;2024-02-23T04:08:45;5.70;99.90
12568;DHT22;6349;50.904;6.136;2024-02-23T04:10:46;5.80;99.90
12568;DHT22;6349;50.904;6.136;2024-02-23T04:12:47;5.80;99.90
12568;DHT22;6349;50.904;6.136;2024-02-23T04:14:48;5.80;99.90
12568;DHT22;6349;50.904;6.136;2024-02-23T04:16:48;5.80;99.90
12568;DHT22;6349;50.904;6.136;2024-02-23T04:18:49;5.80;99.90
12568;DHT22;6349;50.904;6.136;2024-02-23T04:20:49;5.80;99.90
12568;DHT22;6349;50.904;6.136;2024-02-23T04:22:50;5.80;99.90
12568;DHT22;6349;50.904;6.136;2024-02-23T04:24:50;5.80;99.90
12568;DHT22;6349;50.904;6.136;2024-02-23T04:26:51;5.80;99.90
12568;DHT22;6349;50.904;6.136;2024-02-23T04:28:51;5.80;99.90
12568;DHT22;6349;50.904;6.136;2024-02-23T04:30:52;5.80;99.90
12568;DHT22;6349;50.904;6.136;2024-02-23T04:32:52;5.80;99.90
12568;DHT22;6349;50.904;6.136;2024-02-23T04:34:53;5.80;99.90
12568;DHT22;6349;50.904;6.136;2024-02-23T04:36:54;5.80;99.90
12568;DHT22;6349;50.904;6.136;2024-02-23T04:38:55;5.70;99.90
12568;DHT22;6349;50.904;6.136;2024-02-23T04:40:56;5.70;99.90
12568;DHT22;6349;50.904;6.136;2024-02-23T04:42:56;5.70;99.90
12568;DHT22;6349;50.904;6.136;2024-02-23T04:44:57;5.70;99.90
12568;DHT22;6349;50.904;6.136;2024-02-23T04:46:57;5.70;99.90
12568;DHT22;6349;50.904;6.136;2024-02-23T04:48:58;5.70;99.90
12568;DHT22;6349;50.904;6.136;2024-02-23T04:50:59;5.70;99.90
12568;DHT22;6349;50.904;6.136;2024-02-23T04:52:59;5.60;99.90
12568;DHT22;6349;50.904;6.136;2024-02-23T04:55:00;5.70;99.90
12568;DHT22;6349;50.904;6.136;2024-02-23T04:57:00;5.70;99.90
12568;DHT22;6349;50.904;6.136;2024-02-23T04:59:01;5.70;99.90
12568;DHT22;6349;50.904;6.136;2024-02-23T05:01:01;5.70;99.90
12568;DHT22;6349;50.904;6.136;2024-02-23T05:03:03;5.70;99.90
12568;DHT22;6349;50.904;6.136;2024-02-23T05:05:04;5.70;99.90
12568;DHT22;6349;50.904;6.136;2024-02-23T05:07:05;5.70;99.90
12568;DHT22;6349;50.904;6.136;2024-02-23T05:09:05;5.70;99.90
12568;DHT22;6349;50.904;6.136;2024-02-23T05:11:09;5.70;99.90
12568;DHT22;6349;50.904;6.136;2024-02-23T05:13:10;5.70;99.90
12568;DHT22;6349;50.904;6.136;2024-02-23T05:15:11;5.70;99.90
12568;DHT22;6349;50.904;6.136;2024-02-23T05:17:11;5.60;99.90
12568;DHT22;6349;50.904;6.136;2024-02-23T05:19:12;5.60;99.90
12568;DHT22;6349;50.904;6.136;2024-02-23T05:21:14;5.60;99.90
12568;DHT22;6349;50.904;6.136;2024-02-23T05:23:15;5.60;99.90
12568;DHT22;6349;50.904;6.136;2024-02-23T05:25:16;5.60;99.90
12568;DHT22;6349;50.904;6.136;2024-02-23T05:27:16;5.60;99.90
12568;DHT22;6349;50.904;6.136;2024-02-23T05:29:17;5.70;99.90
12568;DHT22;6349;50.904;6.136;2024-02-23T05:31:19;5.70;99.90
12568;DHT22;6349;50.904;6.136;2024-02-23T05:33:20;5.70;99.90
12568;DHT22;6349;50.904;6.136;2024-02-23T05:35:21;5.70;99.90
12568;DHT22;6349;50.904;6.136;2024-02-23T05:37:21;5.70;99.90
12568;DHT22;6349;50.904;6.136;2024-02-23T05:39:22;5.70;99.90
12568;DHT22;6349;50.904;6.136;2024-02-23T05:41:23;5.70;99.90
12568;DHT22;6349;50.904;6.136;2024-02-23T05:43:23;5.70;99.90
12568;DHT22;6349;50.904;6.136;2024-02-23T05:45:24;5.70;99.90
12568;DHT22;6349;50.904;6.136;2024-02-23T05:47:24;5.70;99.90
12568;DHT22;6349;50.904;6.136;2024-02-23T05:49:25;5.70;99.90
12568;DHT22;6349;50.904;6.136;2024-02-23T05:51:25;5.70;99.90
12568;DHT22;6349;50.904;6.136;2024-02-23T05:53:26;5.70;99.90
12568;DHT22;6349;50.904;6.136;2024-02-23T05:55:27;5.70;99.90
12568;DHT22;6349;50.904;6.136;2024-02-23T05:57:27;5.70;99.90
12568;DHT22;6349;50.904;6.136;2024-02-23T05:59:28;5.60;99.90
12568;DHT22;6349;50.904;6.136;2024-02-23T06:01:29;5.70;99.90
12568;DHT22;6349;50.904;6.136;2024-02-23T06:03:29;5.70;99.90
12568;DHT22;6349;50.904;6.136;2024-02-23T06:05:30;5.70;99.90
12568;DHT22;6349;50.904;6.136;2024-02-23T06:07:31;5.70;99.90
12568;DHT22;6349;50.904;6.136;2024-02-23T06:09:32;5.70;99.90
12568;DHT22;6349;50.904;6.136;2024-02-23T06:11:33;5.70;99.90
12568;DHT22;6349;50.904;6.136;2024-02-23T06:13:33;5.70;99.90
12568;DHT22;6349;50.904;6.136;2024-02-23T06:15:34;5.70;99.90
12568;DHT22;6349;50.904;6.136;2024-02-23T06:17:34;5.70;99.90
12568;DHT22;6349;50.904;6.136;2024-02-23T06:19:35;5.70;99.90
12568;DHT22;6349;50.904;6.136;2024-02-23T06:21:36;5.70;99.90
12568;DHT22;6349;50.904;6.136;2024-02-23T06:23:36;5.70;99.90
12568;DHT22;6349;50.904;6.136;2024-02-23T06:25:37;5.70;99.90
12568;DHT22;6349;50.904;6.136;2024-02-23T06:27:38;5.60;99.90
12568;DHT22;6349;50.904;6.136;2024-02-23T06:29:39;5.60;99.90
12568;DHT22;6349;50.904;6.136;2024-02-23T06:31:40;5.60;99.90
12568;DHT22;6349;50.904;6.136;2024-02-23T06:33:41;5.50;99.90
12568;DHT22;6349;50.904;6.136;2024-02-23T06:35:42;5.50;99.90
12568;DHT22;6349;50.904;6.136;2024-02-23T06:37:43;5.50;99.90
12568;DHT22;6349;50.904;6.136;2024-02-23T06:39:43;5.50;99.90
12568;DHT22;6349;50.904;6.136;2024-02-23T06:41:45;5.40;99.90
12568;DHT22;6349;50.904;6.136;2024-02-23T06:43:45;5.40;99.90
12568;DHT22;6349;50.904;6.136;2024-02-23T06:45:46;5.40;99.90
12568;DHT22;6349;50.904;6.136;2024-02-23T06:47:46;5.40;99.90
12568;DHT22;6349;50.904;6.136;2024-02-23T06:49:47;5.40;99.90
12568;DHT22;6349;50.904;6.136;2024-02-23T06:51:47;5.40;99.90
12568;DHT22;6349;50.904;6.136;2024-02-23T06:53:49;5.40;99.90
12568;DHT22;6349;50.904;6.136;2024-02-23T06:55:49;5.40;99.90
12568;DHT22;6349;50.904;6.136;2024-02-23T06:57:50;5.40;99.90
12568;DHT22;6349;50.904;6.136;2024-02-23T06:59:50;5.50;99.90
12568;DHT22;6349;50.904;6.136;2024-02-23T07:01:51;5.50;99.90
12568;DHT22;6349;50.904;6.136;2024-02-23T07:03:52;5.50;99.90
12568;DHT22;6349;50.904;6.136;2024-02-23T07:05:52;5.40;99.90
12568;DHT22;6349;50.904;6.136;2024-02-23T07:07:53;5.40;99.90
12568;DHT22;6349;50.904;6.136;2024-02-23T07:09:54;5.50;99.90
12568;DHT22;6349;50.904;6.136;2024-02-23T07:11:56;5.40;99.90
12568;DHT22;6349;50.904;6.136;2024-02-23T07:13:56;5.40;99.90
12568;DHT22;6349;50.904;6.136;2024-02-23T07:15:57;5.40;99.90
12568;DHT22;6349;50.904;6.136;2024-02-23T07:17:58;5.40;99.90
12568;DHT22;6349;50.904;6.136;2024-02-23T07:19:59;5.50;99.90
12568;DHT22;6349;50.904;6.136;2024-02-23T07:22:05;5.50;99.90
12568;DHT22;6349;50.904;6.136;2024-02-23T07:24:06;5.50;99.90
12568;DHT22;6349;50.904;6.136;2024-02-23T07:26:07;5.50;99.90
12568;DHT22;6349;50.904;6.136;2024-02-23T07:28:07;5.40;99.90
12568;DHT22;6349;50.904;6.136;2024-02-23T07:30:09;5.50;99.90
12568;DHT22;6349;50.904;6.136;2024-02-23T07:32:09;5.50;99.90
12568;DHT22;6349;50.904;6.136;2024-02-23T07:34:10;5.50;99.90
12568;DHT22;6349;50.904;6.136;2024-02-23T07:36:15;5.50;99.90
12568;DHT22;6349;50.904;6.136;2024-02-23T07:38:15;5.50;99.90
12568;DHT22;6349;50.904;6.136;2024-02-23T07:40:18;5.60;99.90
12568;DHT22;6349;50.904;6.136;2024-02-23T07:42:18;5.60;99.90
12568;DHT22;6349;50.904;6.136;2024-02-23T07:44:19;5.60;99.90
12568;DHT22;6349;50.904;6.136;2024-02-23T07:46:19;5.60;99.90
12568;DHT22;6349;50.904;6.136;2024-02-23T07:48:22;5.70;99.90
12568;DHT22;6349;50.904;6.136;2024-02-23T07:50:23;5.70;99.90
12568;DHT22;6349;50.904;6.136;2024-02-23T07:52:24;5.70;99.90
12568;DHT22;6349;50.904;6.136;2024-02-23T07:54:24;5.70;99.90
12568;DHT22;6349;50.904;6.136;2024-02-23T07:56:25;5.70;99.90
12568;DHT22;6349;50.904;6.136;2024-02-23T07:58:26;5.70;99.90
12568;DHT22;6349;50.904;6.136;2024-02-23T08:00:29;5.70;99.90
12568;DHT22;6349;50.904;6.136;2024-02-23T08:02:30;5.70;99.90
12568;DHT22;6349;50.904;6.136;2024-02-23T08:04:30;5.70;99.90
12568;DHT22;6349;50.904;6.136;2024-02-23T08:06:31;5.80;99.90
12568;DHT22;6349;50.904;6.136;2024-02-23T08:08:32;5.80;99.90
12568;DHT22;6349;50.904;6.136;2024-02-23T08:10:35;5.90;99.90
12568;DHT22;6349;50.904;6.136;2024-02-23T08:12:35;5.90;99.90
12568;DHT22;6349;50.904;6.136;2024-02-23T08:14:36;6.00;99.90
12568;DHT22;6349;50.904;6.136;2024-02-23T08:16:37;6.00;99.90
12568;DHT22;6349;50.904;6.136;2024-02-23T08:18:38;6.00;99.90
12568;DHT22;6349;50.904;6.136;2024-02-23T08:20:38;6.00;99.90
12568;DHT22;6349;50.904;6.136;2024-02-23T08:22:39;6.00;99.90
12568;DHT22;6349;50.904;6.136;2024-02-23T08:24:39;6.10;99.90
12568;DHT22;6349;50.904;6.136;2024-02-23T08:26:40;6.10;99.90
12568;DHT22;6349;50.904;6.136;2024-02-23T08:28:41;6.20;99.90
12568;DHT22;6349;50.904;6.136;2024-02-23T08:30:41;6.20;99.90
12568;DHT22;6349;50.904;6.136;2024-02-23T08:32:42;6.20;99.90
12568;DHT22;6349;50.904;6.136;2024-02-23T08:34:42;6.30;99.90
12568;DHT22;6349;50.904;6.136;2024-02-23T08:36:43;6.30;99.90
12568;DHT22;6349;50.904;6.136;2024-02-23T08:38:44;6.30;99.90
12568;DHT22;6349;50.904;6.136;2024-02-23T08:40:45;6.30;99.90
12568;DHT22;6349;50.904;6.136;2024-02-23T08:42:46;6.30;99.90
12568;DHT22;6349;50.904;6.136;2024-02-23T08:44:47;6.40;99.90
12568;DHT22;6349;50.904;6.136;2024-02-23T08:46:48;6.40;99.90
12568;DHT22;6349;50.904;6.136;2024-02-23T08:48:49;6.40;99.90
12568;DHT22;6349;50.904;6.136;2024-02-23T08:50:49;6.40;99.90
12568;DHT22;6349;50.904;6.136;2024-02-23T08:52:50;6.50;99.90
12568;DHT22;6349;50.904;6.136;2024-02-23T08:54:51;6.50;99.90
12568;DHT22;6349;50.904;6.136;2024-02-23T08:56:51;6.60;99.90
12568;DHT22;6349;50.904;6.136;2024-02-23T08:58:52;6.60;99.90
12568;DHT22;6349;50.904;6.136;2024-02-23T09:00:53;6.60;99.90
12568;DHT22;6349;50.904;6.136;2024-02-23T09:02:53;6.60;99.90
12568;DHT22;6349;50.904;6.136;2024-02-23T09:04:54;6.60;99.90
12568;DHT22;6349;50.904;6.136;2024-02-23T09:06:54;6.60;99.90
12568;DHT22;6349;50.904;6.136;2024-02-23T09:08:55;6.70;99.90
12568;DHT22;6349;50.904;6.136;2024-02-23T09:10:56;6.80;99.90
12568;DHT22;6349;50.904;6.136;2024-02-23T09:12:56;6.80;99.90
12568;DHT22;6349;50.904;6.136;2024-02-23T09:14:57;6.80;99.90
12568;DHT22;6349;50.904;6.136;2024-02-23T09:16:58;6.80;99.90
12568;DHT22;6349;50.904;6.136;2024-02-23T09:18:58;6.80;99.90
12568;DHT22;6349;50.904;6.136;2024-02-23T09:20:59;6.90;99.90
12568;DHT22;6349;50.904;6.136;2024-02-23T09:23:00;7.00;99.90
12568;DHT22;6349;50.904;6.136;2024-02-23T09:25:00;7.00;99.90
12568;DHT22;6349;50.904;6.136;2024-02-23T09:27:01;7.00;99.90
12568;DHT22;6349;50.904;6.136;2024-02-23T09:29:03;7.10;99.90
12568;DHT22;6349;50.904;6.136;2024-02-23T09:31:04;7.10;99.90
12568;DHT22;6349;50.904;6.136;2024-02-23T09:33:05;7.10;99.90
12568;DHT22;6349;50.904;6.136;2024-02-23T09:35:06;7.10;99.90
12568;DHT22;6349;50.904;6.136;2024-02-23T09:37:07;7.20;99.90
12568;DHT22;6349;50.904;6.136;2024-02-23T09:39:07;7.20;99.90
12568;DHT22;6349;50.904;6.136;2024-02-23T09:41:17;7.30;99.90
12568;DHT22;6349;50.904;6.136;2024-02-23T09:43:22;7.40;99.90
12568;DHT22;6349;50.904;6.136;2024-02-23T09:45:25;7.50;99.90
12568;DHT22;6349;50.904;6.136;2024-02-23T09:47:29;7.50;99.90
12568;DHT22;6349;50.904;6.136;2024-02-23T09:49:31;7.50;99.90
12568;DHT22;6349;50.904;6.136;2024-02-23T09:51:32;7.60;99.90
12568;DHT22;6349;50.904;6.136;2024-02-23T09:53:37;7.60;99.90
12568;DHT22;6349;50.904;6.136;2024-02-23T09:55:38;7.50;99.90
12568;DHT22;6349;50.904;6.136;2024-02-23T09:57:39;7.60;99.90
12568;DHT22;6349;50.904;6.136;2024-02-23T09:59:40;7.60;99.90
12568;DHT22;6349;50.904;6.136;2024-02-23T10:01:42;7.60;99.90
12568;DHT22;6349;50.904;6.136;2024-02-23T10:03:45;7.60;99.90
12568;DHT22;6349;50.904;6.136;2024-02-23T10:05:45;7.60;99.90
12568;DHT22;6349;50.904;6.136;2024-02-23T10:07:46;7.70;99.90
12568;DHT22;6349;50.904;6.136;2024-02-23T10:09:47;7.70;99.90
12568;DHT22;6349;50.904;6.136;2024-02-23T10:11:54;7.70;99.90
12568;DHT22;6349;50.904;6.136;2024-02-23T10:13:55;7.70;99.90
12568;DHT22;6349;50.904;6.136;2024-02-23T10:15:55;7.60;99.90
12568;DHT22;6349;50.904;6.136;2024-02-23T10:17:57;7.60;99.90
12568;DHT22;6349;50.904;6.136;2024-02-23T10:19:58;7.70;99.90
12568;DHT22;6349;50.904;6.136;2024-02-23T10:21:59;7.60;99.90
12568;DHT22;6349;50.904;6.136;2024-02-23T10:24:00;7.60;99.90
12568;DHT22;6349;50.904;6.136;2024-02-23T10:26:00;7.60;99.90
12568;DHT22;6349;50.904;6.136;2024-02-23T10:28:10;7.60;99.90
12568;DHT22;6349;50.904;6.136;2024-02-23T10:30:11;7.60;99.90
12568;DHT22;6349;50.904;6.136;2024-02-23T10:32:15;7.60;99.90
12568;DHT22;6349;50.904;6.136;2024-02-23T10:34:18;7.60;99.90
12568;DHT22;6349;50.904;6.136;2024-02-23T10:36:19;7.60;99.90
12568;DHT22;6349;50.904;6.136;2024-02-23T10:38:23;7.60;99.90
12568;DHT22;6349;50.904;6.136;2024-02-23T10:40:24;7.70;99.90
12568;DHT22;6349;50.904;6.136;2024-02-23T10:42:33;7.70;99.90
12568;DHT22;6349;50.904;6.136;2024-02-23T10:44:34;7.80;99.90
12568;DHT22;6349;50.904;6.136;2024-02-23T10:46:36;7.80;99.90
12568;DHT22;6349;50.904;6.136;2024-02-23T10:48:39;7.90;99.90
12568;DHT22;6349;50.904;6.136;2024-02-23T10:50:39;8.00;99.90
12568;DHT22;6349;50.904;6.136;2024-02-23T10:52:44;8.10;99.90
12568;DHT22;6349;50.904;6.136;2024-02-23T10:54:47;8.10;99.90
12568;DHT22;6349;50.904;6.136;2024-02-23T10:56:50;8.10;99.90
12568;DHT22;6349;50.904;6.136;2024-02-23T10:58:52;8.10;99.90
12568;DHT22;6349;50.904;6.136;2024-02-23T11:00:57;8.20;99.90
12568;DHT22;6349;50.904;6.136;2024-02-23T11:03:01;8.10;99.90
12568;DHT22;6349;50.904;6.136;2024-02-23T11:05:04;8.20;99.90
12568;DHT22;6349;50.904;6.136;2024-02-23T11:07:13;8.20;99.90
12568;DHT22;6349;50.904;6.136;2024-02-23T11:09:13;8.20;99.90
12568;DHT22;6349;50.904;6.136;2024-02-23T11:11:16;8.20;99.90
12568;DHT22;6349;50.904;6.136;2024-02-23T11:13:17;8.10;99.90
12568;DHT22;6349;50.904;6.136;2024-02-23T11:15:26;8.00;99.90
12568;DHT22;6349;50.904;6.136;2024-02-23T11:17:28;8.00;99.90
12568;DHT22;6349;50.904;6.136;2024-02-23T11:19:35;8.00;99.90
12568;DHT22;6349;50.904;6.136;2024-02-23T11:21:36;8.00;99.90
12568;DHT22;6349;50.904;6.136;2024-02-23T11:23:49;8.00;99.90
12568;DHT22;6349;50.904;6.136;2024-02-23T11:28:04;7.90;99.90
12568;DHT22;6349;50.904;6.136;2024-02-23T11:30:06;7.90;99.90
12568;DHT22;6349;50.904;6.136;2024-02-23T11:32:17;7.90;99.90
12568;DHT22;6349;50.904;6.136;2024-02-23T11:34:22;7.90;99.90
12568;DHT22;6349;50.904;6.136;2024-02-23T11:36:35;7.90;99.90
12568;DHT22;6349;50.904;6.136;2024-02-23T11:38:36;7.80;99.90
12568;DHT22;6349;50.904;6.136;2024-02-23T11:40:39;7.80;99.90
12568;DHT22;6349;50.904;6.136;2024-02-23T11:42:43;7.80;99.90
12568;DHT22;6349;50.904;6.136;2024-02-23T11:44:43;7.80;99.90
12568;DHT22;6349;50.904;6.136;2024-02-23T11:46:44;7.80;99.90
12568;DHT22;6349;50.904;6.136;2024-02-23T11:48:48;7.80;99.90
12568;DHT22;6349;50.904;6.136;2024-02-23T11:50:53;7.80;99.90
12568;DHT22;6349;50.904;6.136;2024-02-23T11:52:54;7.90;99.90
12568;DHT22;6349;50.904;6.136;2024-02-23T11:54:55;7.90;99.90
12568;DHT22;6349;50.904;6.136;2024-02-23T11:56:56;8.00;99.90
12568;DHT22;6349;50.904;6.136;2024-02-23T11:58:57;8.00;99.90
12568;DHT22;6349;50.904;6.136;2024-02-23T12:00:58;8.10;99.90
12568;DHT22;6349;50.904;6.136;2024-02-23T12:03:00;8.10;99.90
12568;DHT22;6349;50.904;6.136;2024-02-23T12:05:01;8.10;99.90
12568;DHT22;6349;50.904;6.136;2024-02-23T12:07:02;8.10;99.90
12568;DHT22;6349;50.904;6.136;2024-02-23T12:09:04;8.10;99.90
12568;DHT22;6349;50.904;6.136;2024-02-23T12:11:05;8.10;99.90
12568;DHT22;6349;50.904;6.136;2024-02-23T12:13:09;8.20;99.90
12568;DHT22;6349;50.904;6.136;2024-02-23T12:15:09;8.20;99.90
12568;DHT22;6349;50.904;6.136;2024-02-23T12:17:10;8.20;99.90
12568;DHT22;6349;50.904;6.136;2024-02-23T12:19:12;8.30;99.90
12568;DHT22;6349;50.904;6.136;2024-02-23T12:21:12;8.30;99.90
12568;DHT22;6349;50.904;6.136;2024-02-23T12:23:13;8.40;99.90
12568;DHT22;6349;50.904;6.136;2024-02-23T12:25:14;8.30;99.90
12568;DHT22;6349;50.904;6.136;2024-02-23T12:27:17;8.40;99.90
12568;DHT22;6349;50.904;6.136;2024-02-23T12:29:18;8.40;99.90
12568;DHT22;6349;50.904;6.136;2024-02-23T12:31:23;8.50;99.90
12568;DHT22;6349;50.904;6.136;2024-02-23T12:33:27;8.60;99.90
12568;DHT22;6349;50.904;6.136;2024-02-23T12:35:28;8.70;99.90
12568;DHT22;6349;50.904;6.136;2024-02-23T12:37:34;8.80;99.90
12568;DHT22;6349;50.904;6.136;2024-02-23T12:39:35;8.90;99.90
12568;DHT22;6349;50.904;6.136;2024-02-23T12:41:36;9.10;99.90
12568;DHT22;6349;50.904;6.136;2024-02-23T12:43:36;9.00;99.90
12568;DHT22;6349;50.904;6.136;2024-02-23T12:45:37;9.00;99.90
12568;DHT22;6349;50.904;6.136;2024-02-23T12:47:38;9.10;99.90
12568;DHT22;6349;50.904;6.136;2024-02-23T12:49:39;9.00;99.90
12568;DHT22;6349;50.904;6.136;2024-02-23T12:51:39;8.90;99.90
12568;DHT22;6349;50.904;6.136;2024-02-23T12:53:41;9.00;99.90
12568;DHT22;6349;50.904;6.136;2024-02-23T12:55:42;9.10;99.90
12568;DHT22;6349;50.904;6.136;2024-02-23T12:57:43;9.30;99.90
12568;DHT22;6349;50.904;6.136;2024-02-23T12:59:44;9.30;99.90
12568;DHT22;6349;50.904;6.136;2024-02-23T13:01:45;9.40;99.90
12568;DHT22;6349;50.904;6.136;2024-02-23T13:03:45;9.60;99.90
12568;DHT22;6349;50.904;6.136;2024-02-23T13:05:46;9.70;99.90
12568;DHT22;6349;50.904;6.136;2024-02-23T13:07:47;9.50;99.90
12568;DHT22;6349;50.904;6.136;2024-02-23T13:09:48;9.30;99.90
12568;DHT22;6349;50.904;6.136;2024-02-23T13:11:48;9.20;99.90
12568;DHT22;6349;50.904;6.136;2024-02-23T13:13:49;9.00;99.90